Terminal Aerodrome Forecast
Issued by NWS

Home | Current Version | Previous Version | Text Only | Print | Product List | Glossary Off
Versions: 1 2 3 4 5 6 7 8 9 10 11 12 13 14 15 16 17 18 19 20

000
FTUS43 KGRB 241235 AAA
TAFRHI
TAF AMD
KRHI 241235Z 2413/2512 01006KT P6SM BKN009 OVC050
      TEMPO 2413/2414 -SHRA SCT009 OVC050
     FM241500 06009KT P6SM BKN012
     FM241700 05007KT P6SM OVC022
     FM242200 06005KT P6SM SCT025 BKN040
     FM250700 VRB03KT 3SM BR OVC003=

USA.gov is the U.S. government's official web portal to all federal, state and local government web resources and services.